createdAt,value
2018-02-04T00:00:29.755Z,18.90
2018-02-04T00:02:56.781Z,19.40
2018-02-04T00:05:23.081Z,16.57
2018-02-04T00:07:49.384Z,17.30
2018-02-04T00:10:15.674Z,18.57
2018-02-04T00:12:42.724Z,17.10
2018-02-04T00:15:09.017Z,19.43
2018-02-04T00:17:35.299Z,16.70
2018-02-04T00:20:02.351Z,18.33
2018-02-04T00:22:36.977Z,17.17
2018-02-04T00:25:03.344Z,19.27
2018-02-04T00:27:29.627Z,18.03
2018-02-04T00:29:56.668Z,18.80
2018-02-04T00:32:23.696Z,18.10
2018-02-04T00:34:50.003Z,19.57
2018-02-04T00:37:16.329Z,19.27
2018-02-04T00:39:42.639Z,19.47
2018-02-04T00:42:08.928Z,18.23
2018-02-04T00:44:35.988Z,17.43
2018-02-04T00:47:03.018Z,18.57
2018-02-04T00:49:30.053Z,19.17
2018-02-04T00:51:56.341Z,21.03
2018-02-04T00:54:22.625Z,19.77
2018-02-04T00:56:48.913Z,17.77
2018-02-04T00:59:15.191Z,20.50
2018-02-04T01:01:41.476Z,18.30
2018-02-04T01:04:07.772Z,18.20
2018-02-04T01:06:34.820Z,19.27
2018-02-04T01:09:01.120Z,16.77
2018-02-04T01:11:28.180Z,20.07
2018-02-04T01:13:55.215Z,16.80
2018-02-04T01:16:21.513Z,18.30
2018-02-04T01:18:47.796Z,19.90
2018-02-04T01:21:14.838Z,17.67
2018-02-04T01:23:41.852Z,16.83
2018-02-04T01:26:08.153Z,19.13
2018-02-04T01:28:34.440Z,18.20
2018-02-04T01:31:00.823Z,16.60
2018-02-04T01:33:27.106Z,18.17
2018-02-04T01:35:54.149Z,22.07
2018-02-04T01:38:21.175Z,18.73
2018-02-04T01:40:47.466Z,18.40
2018-02-04T01:43:13.747Z,17.53
2018-02-04T01:45:40.790Z,16.87
2018-02-04T01:48:07.856Z,18.00
2018-02-04T01:50:34.881Z,18.30
2018-02-04T01:53:01.976Z,16.80
2018-02-04T01:55:28.261Z,18.10
2018-02-04T01:57:54.543Z,20.17
2018-02-04T02:00:20.889Z,18.30
2018-02-04T02:02:47.191Z,18.20
2018-02-04T02:05:13.476Z,21.30
2018-02-04T02:07:39.999Z,19.80
2018-02-04T02:10:06.312Z,17.57
2018-02-04T02:12:32.822Z,19.33
2018-02-04T02:14:59.108Z,17.90
2018-02-04T02:17:25.390Z,17.00
2018-02-04T02:19:51.657Z,18.50
2018-02-04T02:22:17.993Z,17.20
2018-02-04T02:24:45.024Z,21.83
2018-02-04T02:27:11.318Z,20.97
2018-02-04T02:29:37.621Z,23.50
2018-02-04T02:32:04.649Z,21.90
2018-02-04T02:34:31.718Z,20.03
2018-02-04T02:36:58.025Z,22.10
2018-02-04T02:39:24.317Z,19.57
2018-02-04T02:41:50.605Z,20.73
2018-02-04T02:44:17.653Z,19.00
2018-02-04T02:46:43.955Z,19.50
2018-02-04T02:49:10.259Z,22.73
2018-02-04T02:51:36.577Z,20.63
2018-02-04T02:54:02.906Z,21.30
2018-02-04T02:56:29.181Z,20.23
2018-02-04T02:58:56.218Z,20.70
2018-02-04T03:01:22.506Z,20.80
2018-02-04T03:03:48.805Z,19.90
2018-02-04T03:06:15.827Z,21.47
2018-02-04T03:08:42.359Z,20.90
2018-02-04T03:11:08.875Z,20.00
2018-02-04T03:13:35.933Z,20.13
2018-02-04T03:16:02.233Z,20.27
2018-02-04T03:18:28.523Z,24.27
2018-02-04T03:20:55.545Z,21.17
2018-02-04T03:23:23.317Z,22.27
2018-02-04T03:25:50.373Z,20.60
2018-02-04T03:28:17.432Z,21.57
2018-02-04T03:30:43.750Z,20.00
2018-02-04T03:33:10.813Z,22.27
2018-02-04T03:35:37.879Z,21.87
2018-02-04T03:38:04.181Z,20.93
2018-02-04T03:40:30.494Z,21.33
2018-02-04T03:42:56.779Z,22.93
2018-02-04T03:45:23.061Z,21.90
2018-02-04T03:47:49.381Z,22.77
2018-02-04T03:50:15.687Z,21.80
2018-02-04T03:52:41.954Z,21.90
2018-02-04T03:55:09.007Z,20.33
2018-02-04T03:57:36.040Z,21.40
2018-02-04T04:00:02.343Z,20.83
2018-02-04T04:02:28.654Z,22.83
2018-02-04T04:04:54.927Z,21.47
2018-02-04T04:07:21.300Z,21.13
2018-02-04T04:09:47.649Z,21.57
2018-02-04T04:12:14.676Z,22.77
2018-02-04T04:14:41.046Z,23.97
2018-02-04T04:17:07.356Z,23.67
2018-02-04T04:19:33.646Z,19.30
2018-02-04T04:22:02.192Z,20.60
2018-02-04T04:24:28.541Z,21.37
2018-02-04T04:26:55.612Z,22.27
2018-02-04T04:29:21.941Z,21.20
2018-02-04T04:31:48.991Z,20.33
2018-02-04T04:34:15.312Z,22.50
2018-02-04T04:36:42.343Z,19.43
2018-02-04T04:39:09.373Z,20.77
2018-02-04T04:41:35.691Z,22.40
2018-02-04T04:44:01.988Z,20.63
2018-02-04T04:46:28.296Z,18.93
2018-02-04T04:48:55.306Z,21.80
2018-02-04T04:51:21.588Z,21.97
2018-02-04T04:53:47.880Z,20.50
2018-02-04T04:56:14.939Z,20.80
2018-02-04T04:58:42.156Z,21.30
2018-02-04T05:01:08.440Z,22.27
2018-02-04T05:03:34.740Z,19.90
2018-02-04T05:06:01.034Z,19.57
2018-02-04T05:08:27.323Z,19.30
2018-02-04T05:10:53.622Z,16.67
2018-02-04T05:13:20.653Z,17.23
2018-02-04T05:15:46.926Z,16.73
2018-02-04T05:18:13.960Z,10.60
2018-02-04T05:20:40.994Z,10.37
2018-02-04T05:23:07.284Z,10.20
2018-02-04T05:25:33.564Z,10.63
2018-02-04T05:28:00.616Z,9.43
2018-02-04T05:30:27.653Z,8.47
2018-02-04T05:32:53.952Z,8.80
2018-02-04T05:35:20.232Z,9.90
2018-02-04T05:37:47.264Z,9.73
2018-02-04T05:40:14.295Z,10.10
2018-02-04T05:42:40.584Z,11.07
2018-02-04T05:45:06.881Z,10.73
2018-02-04T05:47:33.198Z,11.03
2018-02-04T05:50:00.264Z,10.47
2018-02-04T05:52:26.571Z,11.10
2018-02-04T05:54:53.655Z,10.07
2018-02-04T05:57:19.940Z,11.07
2018-02-04T05:59:46.252Z,10.90
2018-02-04T06:02:12.553Z,9.70
2018-02-04T06:04:38.855Z,11.23
2018-02-04T06:07:05.871Z,12.40
2018-02-04T06:09:32.181Z,10.90
2018-02-04T06:11:58.468Z,9.70
2018-02-04T06:14:25.121Z,11.97
2018-02-04T06:16:51.407Z,11.07
2018-02-04T06:19:18.475Z,12.40
2018-02-04T06:21:44.830Z,11.50
2018-02-04T06:24:11.149Z,10.70
2018-02-04T06:26:37.460Z,10.00
2018-02-04T06:29:04.516Z,9.70
2018-02-04T06:31:31.549Z,11.90
2018-02-04T06:33:58.619Z,10.17
2018-02-04T06:36:24.913Z,10.10
2018-02-04T06:38:51.977Z,10.70
2018-02-04T06:41:19.830Z,11.30
2018-02-04T06:43:46.144Z,10.50
2018-02-04T06:46:12.444Z,10.13
2018-02-04T06:48:39.706Z,9.87
2018-02-04T06:51:05.996Z,9.80
2018-02-04T06:53:33.038Z,10.40
2018-02-04T06:56:00.100Z,9.60
2018-02-04T06:58:26.408Z,10.10
2018-02-04T07:00:54.304Z,9.53
2018-02-04T07:03:20.599Z,10.40
2018-02-04T07:05:47.660Z,10.80
2018-02-04T07:08:13.965Z,10.13
2018-02-04T07:10:40.271Z,10.13
2018-02-04T07:13:06.552Z,9.57
2018-02-04T07:15:33.609Z,9.40
2018-02-04T07:17:59.908Z,9.70
2018-02-04T07:20:26.974Z,10.97
2018-02-04T07:22:56.289Z,10.27
2018-02-04T07:25:22.628Z,9.60
2018-02-04T07:27:48.925Z,9.77
2018-02-04T07:30:16.018Z,10.50
2018-02-04T07:32:42.343Z,11.33
2018-02-04T07:35:08.667Z,11.80
2018-02-04T07:37:34.961Z,9.37
2018-02-04T07:40:01.586Z,9.00
2018-02-04T07:42:28.638Z,9.50
2018-02-04T07:44:54.972Z,9.57
2018-02-04T07:47:21.337Z,11.67
2018-02-04T07:49:48.377Z,8.97
2018-02-04T07:52:14.755Z,9.70
2018-02-04T07:54:41.099Z,9.63
2018-02-04T07:57:07.417Z,10.57
2018-02-04T07:59:33.690Z,9.60
2018-02-04T08:02:00.044Z,10.50
2018-02-04T08:04:26.359Z,10.40
2018-02-04T08:06:52.704Z,10.43
2018-02-04T08:09:18.983Z,10.47
2018-02-04T08:11:45.312Z,11.80
2018-02-04T08:14:11.580Z,11.17
2018-02-04T08:16:37.935Z,11.73
2018-02-04T08:19:04.260Z,10.10
2018-02-04T08:21:30.596Z,11.63
2018-02-04T08:23:56.864Z,11.57
2018-02-04T08:26:23.187Z,10.67
2018-02-04T08:28:50.248Z,12.10
2018-02-04T08:31:16.601Z,11.20
2018-02-04T08:33:42.897Z,11.17
2018-02-04T08:36:09.194Z,10.90
2018-02-04T08:38:35.468Z,10.17
2018-02-04T08:41:01.758Z,10.60
2018-02-04T08:43:28.055Z,10.70
2018-02-04T08:45:54.348Z,10.20
2018-02-04T08:48:20.632Z,10.37
2018-02-04T08:50:46.960Z,10.33
2018-02-04T08:53:13.245Z,9.83
2018-02-04T08:55:40.303Z,9.97
2018-02-04T08:58:06.611Z,9.73
2018-02-04T09:00:32.961Z,9.87
2018-02-04T09:03:00.058Z,9.93
2018-02-04T09:05:26.334Z,12.87
2018-02-04T09:07:53.364Z,10.67
2018-02-04T09:10:19.674Z,11.23
2018-02-04T09:12:45.963Z,10.03
2018-02-04T09:15:12.241Z,10.87
2018-02-04T09:17:38.533Z,11.00
2018-02-04T09:20:04.823Z,10.83
2018-02-04T09:22:31.117Z,10.30
2018-02-04T09:24:57.391Z,10.40
2018-02-04T09:27:23.677Z,9.20
2018-02-04T09:29:49.969Z,9.57
2018-02-04T09:32:16.280Z,10.57
2018-02-04T09:34:42.610Z,9.93
2018-02-04T09:37:09.667Z,10.43
2018-02-04T09:39:35.984Z,10.43
2018-02-04T09:42:02.356Z,10.83
2018-02-04T09:44:28.672Z,12.10
2018-02-04T09:46:54.961Z,10.23
2018-02-04T09:49:21.263Z,10.43
2018-02-04T09:51:47.574Z,10.60
2018-02-04T09:54:13.854Z,11.23
2018-02-04T09:56:40.150Z,10.77
2018-02-04T09:59:06.455Z,11.60
2018-02-04T10:01:32.748Z,11.93
2018-02-04T10:03:59.780Z,10.43
2018-02-04T10:06:27.004Z,11.83
2018-02-04T10:08:53.307Z,11.57
2018-02-04T10:11:19.612Z,11.20
2018-02-04T10:13:46.650Z,10.90
2018-02-04T10:16:15.352Z,10.40
2018-02-04T10:18:41.673Z,11.30
2018-02-04T10:21:08.720Z,10.57
2018-02-04T10:23:35.774Z,11.50
2018-02-04T10:26:02.849Z,11.07
2018-02-04T10:28:29.882Z,10.90
2018-02-04T10:30:56.173Z,10.70
2018-02-04T10:33:22.469Z,11.70
2018-02-04T10:35:48.772Z,11.07
2018-02-04T10:38:15.080Z,12.67
2018-02-04T10:40:42.118Z,11.80
2018-02-04T10:43:08.418Z,12.57
2018-02-04T10:45:34.697Z,12.87
2018-02-04T10:48:01.005Z,12.83
2018-02-04T10:50:27.335Z,13.10
2018-02-04T10:52:53.654Z,12.70
2018-02-04T10:55:19.928Z,12.87
2018-02-04T10:57:46.300Z,13.20
2018-02-04T11:00:12.599Z,12.60
2018-02-04T11:02:38.921Z,13.07
2018-02-04T11:05:05.217Z,13.07
2018-02-04T11:07:31.520Z,13.87
2018-02-04T11:09:57.849Z,13.83
2018-02-04T11:12:24.122Z,13.30
2018-02-04T11:14:50.432Z,12.63
2018-02-04T11:17:16.708Z,13.43
2018-02-04T11:19:43.029Z,13.10
2018-02-04T11:22:09.330Z,14.37
2018-02-04T11:24:35.651Z,13.50
2018-02-04T11:27:03.424Z,14.00
2018-02-04T11:29:30.463Z,12.50
2018-02-04T11:31:58.230Z,11.40
2018-02-04T11:34:24.579Z,12.77
2018-02-04T11:36:50.877Z,13.47
2018-02-04T11:39:17.184Z,13.40
2018-02-04T11:41:43.477Z,13.33
2018-02-04T11:44:09.796Z,11.60
2018-02-04T11:46:36.817Z,14.77
2018-02-04T11:49:03.934Z,13.07
2018-02-04T11:51:30.274Z,13.60
2018-02-04T11:53:56.578Z,12.87
2018-02-04T11:56:22.913Z,14.00
2018-02-04T11:58:49.196Z,11.87
2018-02-04T12:01:16.250Z,12.40
2018-02-04T12:03:43.273Z,12.80
2018-02-04T12:06:09.590Z,12.20
2018-02-04T12:08:35.888Z,13.03
2018-02-04T12:11:02.220Z,13.70
2018-02-04T12:13:28.499Z,14.07
2018-02-04T12:15:54.820Z,13.37
2018-02-04T12:18:21.125Z,15.13
2018-02-04T12:20:47.447Z,12.90
2018-02-04T12:23:13.744Z,12.53
2018-02-04T12:25:40.780Z,13.70
2018-02-04T12:28:07.818Z,12.37
2018-02-04T12:30:34.887Z,12.60
2018-02-04T12:33:01.193Z,13.30
2018-02-04T12:35:27.528Z,14.30
2018-02-04T12:37:54.586Z,14.93
2018-02-04T12:40:21.671Z,13.30
2018-02-04T12:42:48.004Z,13.33
2018-02-04T12:45:14.299Z,14.73
2018-02-04T12:47:41.342Z,12.73
2018-02-04T12:50:08.391Z,13.80
2018-02-04T12:52:34.825Z,15.53
2018-02-04T12:55:01.857Z,16.10
2018-02-04T12:57:28.922Z,16.07
2018-02-04T12:59:55.949Z,16.03
2018-02-04T13:02:23.023Z,19.03
2018-02-04T13:04:50.364Z,16.30
2018-02-04T13:07:16.806Z,15.73
2018-02-04T13:09:43.831Z,14.97
2018-02-04T13:12:10.140Z,19.07
2018-02-04T13:14:36.424Z,15.70
2018-02-04T13:17:02.955Z,16.63
2018-02-04T13:19:29.370Z,17.07
2018-02-04T13:21:55.732Z,15.40
2018-02-04T13:24:22.049Z,16.50
2018-02-04T13:26:48.361Z,14.63
2018-02-04T13:29:15.399Z,14.37
2018-02-04T13:31:42.437Z,17.70
2018-02-04T13:34:08.745Z,14.40
2018-02-04T13:36:35.020Z,15.20
2018-02-04T13:39:02.130Z,16.60
2018-02-04T13:41:29.184Z,13.93
2018-02-04T13:43:55.481Z,14.87
2018-02-04T13:46:21.760Z,15.40
2018-02-04T13:48:48.045Z,13.97
2018-02-04T13:51:14.338Z,15.53
2018-02-04T13:53:41.368Z,15.10
2018-02-04T13:56:08.430Z,16.80
2018-02-04T13:58:35.468Z,15.83
2018-02-04T14:01:02.522Z,16.03
2018-02-04T14:03:29.567Z,17.03
2018-02-04T14:05:56.600Z,14.53
2018-02-04T14:08:23.668Z,16.43
2018-02-04T14:10:50.698Z,15.90
2018-02-04T14:13:17.037Z,14.67
2018-02-04T14:15:44.078Z,16.33
2018-02-04T14:18:11.129Z,17.03
2018-02-04T14:20:38.167Z,15.00
2018-02-04T14:23:05.213Z,18.00
2018-02-04T14:25:31.491Z,16.90
2018-02-04T14:27:57.806Z,16.40
2018-02-04T14:30:24.134Z,17.43
2018-02-04T14:32:50.502Z,17.60
2018-02-04T14:35:16.856Z,15.70
2018-02-04T14:37:44.654Z,16.53
2018-02-04T14:40:10.944Z,18.53
2018-02-04T14:42:37.277Z,18.17
2018-02-04T14:45:03.600Z,17.67
2018-02-04T14:47:29.905Z,16.83
2018-02-04T14:49:56.197Z,18.10
2018-02-04T14:52:23.225Z,18.13
2018-02-04T14:54:49.529Z,19.03
2018-02-04T14:57:15.859Z,19.03
2018-02-04T14:59:42.120Z,19.17
2018-02-04T15:02:08.409Z,20.17
2018-02-04T15:04:34.696Z,20.40
2018-02-04T15:07:01.736Z,20.57
2018-02-04T15:09:28.784Z,19.20
2018-02-04T15:11:55.806Z,20.13
2018-02-04T15:14:22.085Z,19.30
2018-02-04T15:16:48.383Z,21.77
2018-02-04T15:19:15.408Z,20.43
2018-02-04T15:21:41.754Z,21.70
2018-02-04T15:24:08.806Z,19.67
2018-02-04T15:26:35.661Z,20.20
2018-02-04T15:29:02.003Z,21.90
2018-02-04T15:31:28.285Z,21.17
2018-02-04T15:33:54.565Z,20.20
2018-02-04T15:36:20.864Z,19.90
2018-02-04T15:38:47.135Z,21.30
2018-02-04T15:41:13.420Z,21.57
2018-02-04T15:43:40.439Z,22.47
2018-02-04T15:46:06.742Z,20.63
2018-02-04T15:48:33.013Z,19.47
2018-02-04T15:50:59.324Z,18.03
2018-02-04T15:53:25.597Z,21.27
2018-02-04T15:55:51.902Z,19.53
2018-02-04T15:58:18.193Z,21.40
2018-02-04T16:00:44.484Z,19.80
2018-02-04T16:03:11.758Z,21.80
2018-02-04T16:05:38.087Z,20.07
2018-02-04T16:08:04.369Z,22.07
2018-02-04T16:10:30.660Z,21.37
2018-02-04T16:12:57.028Z,18.73
2018-02-04T16:15:23.326Z,18.97
2018-02-04T16:17:49.622Z,23.50
2018-02-04T16:20:16.644Z,19.93
2018-02-04T16:22:43.687Z,19.93
2018-02-04T16:25:11.491Z,26.80
2018-02-04T16:27:37.783Z,23.47
2018-02-04T16:30:04.100Z,23.70
2018-02-04T16:32:30.380Z,20.77
2018-02-04T16:34:56.710Z,19.33
2018-02-04T16:37:23.026Z,21.23
2018-02-04T16:39:50.060Z,22.70
2018-02-04T16:42:16.380Z,20.13
2018-02-04T16:44:42.651Z,20.90
2018-02-04T16:47:08.981Z,20.40
2018-02-04T16:49:35.285Z,19.10
2018-02-04T16:52:02.345Z,20.40
2018-02-04T16:54:29.365Z,22.20
2018-02-04T16:56:55.720Z,18.23
2018-02-04T16:59:22.012Z,20.20
2018-02-04T17:01:48.321Z,21.70
2018-02-04T17:04:14.628Z,21.03
2018-02-04T17:06:40.974Z,19.30
2018-02-04T17:09:07.338Z,21.13
2018-02-04T17:11:33.732Z,18.40
2018-02-04T17:14:00.047Z,20.40
2018-02-04T17:16:26.355Z,19.93
2018-02-04T17:18:53.427Z,19.23
2018-02-04T17:21:19.702Z,18.80
2018-02-04T17:23:45.991Z,17.17
2018-02-04T17:26:12.555Z,18.60
2018-02-04T17:28:39.038Z,17.80
2018-02-04T17:31:05.517Z,18.63
2018-02-04T17:33:32.568Z,17.90
2018-02-04T17:35:59.109Z,17.17
2018-02-04T17:38:25.428Z,18.43
2018-02-04T17:40:51.729Z,25.77
2018-02-04T17:43:18.547Z,17.10
2018-02-04T17:45:44.855Z,18.03
2018-02-04T17:48:11.156Z,18.73
2018-02-04T17:50:37.467Z,18.27
2018-02-04T17:53:03.821Z,17.30
2018-02-04T17:55:30.125Z,16.47
2018-02-04T17:57:56.481Z,21.37
2018-02-04T18:00:22.837Z,17.90
2018-02-04T18:02:49.249Z,15.23
2018-02-04T18:05:15.575Z,15.30
2018-02-04T18:07:41.853Z,16.53
2018-02-04T18:10:09.041Z,15.17
2018-02-04T18:12:35.567Z,16.47
2018-02-04T18:15:02.167Z,15.60
2018-02-04T18:17:29.389Z,17.60
2018-02-04T18:19:55.936Z,16.40
2018-02-04T18:22:22.992Z,16.30
2018-02-04T18:24:49.290Z,18.57
2018-02-04T18:27:15.600Z,15.97
2018-02-04T18:29:41.961Z,19.40
2018-02-04T18:32:08.253Z,18.90
2018-02-04T18:34:34.553Z,16.67
2018-02-04T18:37:01.663Z,14.83
2018-02-04T18:39:28.180Z,15.33
2018-02-04T18:41:54.502Z,14.83
2018-02-04T18:44:20.895Z,14.80
2018-02-04T18:46:48.124Z,13.60
2018-02-04T18:49:14.425Z,13.97
2018-02-04T18:51:40.736Z,12.43
2018-02-04T18:54:07.073Z,13.50
2018-02-04T18:56:34.117Z,12.70
2018-02-04T18:59:00.486Z,13.30
2018-02-04T19:01:26.871Z,14.43
2018-02-04T19:03:53.366Z,14.87
2018-02-04T19:06:19.651Z,11.80
2018-02-04T19:08:46.178Z,12.90
2018-02-04T19:11:13.359Z,11.20
2018-02-04T19:13:39.755Z,11.87
2018-02-04T19:16:06.092Z,12.20
2018-02-04T19:18:32.390Z,11.17
2018-02-04T19:20:59.445Z,14.17
2018-02-04T19:23:26.516Z,12.70
2018-02-04T19:25:52.849Z,12.93
2018-02-04T19:28:19.221Z,12.00
2018-02-04T19:30:45.525Z,9.60
2018-02-04T19:33:11.828Z,13.03
2018-02-04T19:35:38.148Z,13.00
2018-02-04T19:38:05.255Z,12.03
2018-02-04T19:40:31.571Z,10.60
2018-02-04T19:42:57.850Z,9.27
2018-02-04T19:45:24.920Z,11.30
2018-02-04T19:47:51.196Z,10.40
2018-02-04T19:50:17.474Z,9.70
2018-02-04T19:52:43.768Z,9.50
2018-02-04T19:55:10.048Z,11.93
2018-02-04T19:57:36.364Z,10.00
2018-02-04T20:00:02.677Z,12.20
2018-02-04T20:02:30.346Z,11.20
2018-02-04T20:04:56.641Z,9.40
2018-02-04T20:07:23.094Z,12.77
2018-02-04T20:09:50.392Z,8.60
2018-02-04T20:12:16.748Z,10.00
2018-02-04T20:14:43.051Z,8.53
2018-02-04T20:17:09.399Z,10.93
2018-02-04T20:19:35.738Z,11.47
2018-02-04T20:22:02.034Z,9.13
2018-02-04T20:24:28.327Z,8.93
2018-02-04T20:26:54.686Z,10.50
2018-02-04T20:29:20.978Z,12.67
2018-02-04T20:31:48.051Z,9.73
2018-02-04T20:34:26.853Z,11.93
2018-02-04T20:36:53.169Z,11.73
2018-02-04T20:39:19.468Z,9.43
2018-02-04T20:41:45.798Z,11.50
2018-02-04T20:44:12.098Z,10.27
2018-02-04T20:46:38.466Z,8.53
2018-02-04T20:49:04.842Z,8.97
2018-02-04T20:51:31.220Z,10.10
2018-02-04T20:53:58.035Z,9.00
2018-02-04T20:56:24.345Z,10.37
2018-02-04T20:58:51.485Z,8.27
2018-02-04T21:01:17.836Z,9.90
2018-02-04T21:03:44.269Z,10.60
2018-02-04T21:06:10.551Z,8.77
2018-02-04T21:08:36.948Z,9.40
2018-02-04T21:11:03.248Z,11.43
2018-02-04T21:13:30.309Z,9.30
2018-02-04T21:15:56.648Z,10.83
2018-02-04T21:18:22.976Z,10.90
2018-02-04T21:20:49.304Z,8.10
2018-02-04T21:23:15.730Z,10.40
2018-02-04T21:25:42.399Z,9.50
2018-02-04T21:28:08.720Z,7.77
2018-02-04T21:30:35.201Z,8.17
2018-02-04T21:33:01.577Z,8.47
2018-02-04T21:35:27.978Z,8.37
2018-02-04T21:37:54.495Z,10.13
2018-02-04T21:40:20.823Z,9.10
2018-02-04T21:42:47.141Z,7.30
2018-02-04T21:45:13.485Z,7.67
2018-02-04T21:47:39.801Z,8.20
2018-02-04T21:50:06.113Z,8.13
2018-02-04T21:52:32.501Z,8.00
2018-02-04T21:54:58.881Z,7.33
2018-02-04T21:57:25.216Z,9.37
2018-02-04T21:59:51.551Z,6.80
2018-02-04T22:02:17.857Z,7.90
2018-02-04T22:04:44.158Z,10.83
2018-02-04T22:07:11.231Z,8.70
2018-02-04T22:09:37.557Z,11.77
2018-02-04T22:12:03.893Z,10.07
2018-02-04T22:14:30.242Z,7.50
2018-02-04T22:16:56.548Z,7.90
2018-02-04T22:19:22.836Z,6.67
2018-02-04T22:21:49.125Z,6.80
2018-02-04T22:24:15.438Z,8.57
2018-02-04T22:26:41.726Z,7.13
2018-02-04T22:29:08.076Z,10.27
2018-02-04T22:31:35.108Z,7.33
2018-02-04T22:34:02.497Z,10.00
2018-02-04T22:36:28.871Z,5.87
2018-02-04T22:38:55.186Z,6.27
2018-02-04T22:41:21.624Z,7.97
2018-02-04T22:43:47.946Z,8.27
2018-02-04T22:46:14.264Z,6.70
2018-02-04T22:48:40.572Z,6.00
2018-02-04T22:51:06.892Z,6.70
2018-02-04T22:53:33.222Z,6.93
2018-02-04T22:55:59.553Z,6.73
2018-02-04T22:58:26.589Z,6.10
2018-02-04T23:00:53.650Z,6.60
2018-02-04T23:03:19.985Z,6.40
2018-02-04T23:05:46.283Z,6.27
2018-02-04T23:08:12.573Z,6.13
2018-02-04T23:10:38.888Z,5.73
2018-02-04T23:13:05.190Z,5.77
2018-02-04T23:15:32.239Z,5.50
2018-02-04T23:17:59.277Z,5.30
2018-02-04T23:20:26.328Z,6.03
2018-02-04T23:22:53.382Z,5.90
2018-02-04T23:25:20.437Z,6.50
2018-02-04T23:27:47.498Z,6.10
2018-02-04T23:30:13.786Z,6.23
2018-02-04T23:32:40.085Z,5.47
2018-02-04T23:35:06.427Z,8.07
2018-02-04T23:37:32.733Z,6.37
2018-02-04T23:39:59.022Z,5.50
2018-02-04T23:42:26.064Z,6.17
2018-02-04T23:44:53.093Z,7.03
2018-02-04T23:47:19.399Z,6.90
2018-02-04T23:49:45.717Z,5.07
2018-02-04T23:52:12.009Z,6.53
2018-02-04T23:54:39.040Z,5.37
2018-02-04T23:57:05.380Z,5.30
2018-02-04T23:59:32.386Z,5.17
